sensor_id;sensor_type;location;lat;lon;timestamp;pressure;altitude;pressure_sealevel;temperature
15544;BMP180;7873;52.230;12.856;2022-09-09T00:00:56;100304.09;;;24.66
15544;BMP180;7873;52.230;12.856;2022-09-09T00:03:26;100305.31;;;24.63
15544;BMP180;7873;52.230;12.856;2022-09-09T00:05:59;100302.22;;;24.66
15544;BMP180;7873;52.230;12.856;2022-09-09T00:08:35;100301.19;;;24.67
15544;BMP180;7873;52.230;12.856;2022-09-09T00:11:05;100303.06;;;24.67
15544;BMP180;7873;52.230;12.856;2022-09-09T00:13:36;100298.50;;;24.67
15544;BMP180;7873;52.230;12.856;2022-09-09T00:16:08;100297.06;;;24.65
15544;BMP180;7873;52.230;12.856;2022-09-09T00:18:45;100294.38;;;24.65
15544;BMP180;7873;52.230;12.856;2022-09-09T00:21:16;100287.31;;;24.64
15544;BMP180;7873;52.230;12.856;2022-09-09T00:23:48;100287.72;;;24.61
15544;BMP180;7873;52.230;12.856;2022-09-09T00:26:21;100290.59;;;24.59
15544;BMP180;7873;52.230;12.856;2022-09-09T00:28:52;100292.44;;;24.59
15544;BMP180;7873;52.230;12.856;2022-09-09T00:31:26;100295.78;;;24.61
15544;BMP180;7873;52.230;12.856;2022-09-09T00:33:58;100290.59;;;24.59
15544;BMP180;7873;52.230;12.856;2022-09-09T00:36:31;100292.88;;;24.62
15544;BMP180;7873;52.230;12.856;2022-09-09T00:39:02;100298.28;;;24.62
15544;BMP180;7873;52.230;12.856;2022-09-09T00:41:38;100295.97;;;24.59
15544;BMP180;7873;52.230;12.856;2022-09-09T00:44:20;100293.47;;;24.58
15544;BMP180;7873;52.230;12.856;2022-09-09T00:46:56;100289.13;;;24.57
15544;BMP180;7873;52.230;12.856;2022-09-09T00:49:36;100286.81;;;24.54
15544;BMP180;7873;52.230;12.856;2022-09-09T00:52:17;100290.34;;;24.54
15544;BMP180;7873;52.230;12.856;2022-09-09T00:54:54;100287.28;;;24.57
15544;BMP180;7873;52.230;12.856;2022-09-09T00:57:27;100290.78;;;24.58
15544;BMP180;7873;52.230;12.856;2022-09-09T01:00:14;100291.81;;;24.57
15544;BMP180;7873;52.230;12.856;2022-09-09T01:02:52;100295.13;;;24.59
15544;BMP180;7873;52.230;12.856;2022-09-09T01:05:24;100288.47;;;24.55
15544;BMP180;7873;52.230;12.856;2022-09-09T01:07:53;100294.44;;;24.50
15544;BMP180;7873;52.230;12.856;2022-09-09T01:10:27;100293.22;;;24.53
15544;BMP180;7873;52.230;12.856;2022-09-09T01:12:58;100286.19;;;24.52
15544;BMP180;7873;52.230;12.856;2022-09-09T01:15:29;100293.44;;;24.51
15544;BMP180;7873;52.230;12.856;2022-09-09T01:18:00;100294.63;;;24.49
15544;BMP180;7873;52.230;12.856;2022-09-09T01:20:32;100297.31;;;24.49
15544;BMP180;7873;52.230;12.856;2022-09-09T01:23:20;100301.69;;;24.50
15544;BMP180;7873;52.230;12.856;2022-09-09T01:26:22;100303.19;;;24.52
15544;BMP180;7873;52.230;12.856;2022-09-09T01:28:52;100302.53;;;24.50
15544;BMP180;7873;52.230;12.856;2022-09-09T01:31:21;100297.50;;;24.47
15544;BMP180;7873;52.230;12.856;2022-09-09T01:33:49;100295.66;;;24.48
15544;BMP180;7873;52.230;12.856;2022-09-09T01:36:23;100295.22;;;24.44
15544;BMP180;7873;52.230;12.856;2022-09-09T01:38:51;100297.91;;;24.44
15544;BMP180;7873;52.230;12.856;2022-09-09T01:41:18;100292.72;;;24.43
15544;BMP180;7873;52.230;12.856;2022-09-09T01:43:47;100286.72;;;24.41
15544;BMP180;7873;52.230;12.856;2022-09-09T01:46:14;100283.81;;;24.42
15544;BMP180;7873;52.230;12.856;2022-09-09T01:48:41;100288.13;;;24.37
15544;BMP180;7873;52.230;12.856;2022-09-09T01:51:09;100287.94;;;24.38
15544;BMP180;7873;52.230;12.856;2022-09-09T01:53:37;100292.72;;;24.43
15544;BMP180;7873;52.230;12.856;2022-09-09T01:56:12;100285.88;;;24.40
15544;BMP180;7873;52.230;12.856;2022-09-09T01:58:52;100293.75;;;24.42
15544;BMP180;7873;52.230;12.856;2022-09-09T02:01:31;100291.50;;;24.45
15544;BMP180;7873;52.230;12.856;2022-09-09T02:04:07;100293.38;;;24.45
15544;BMP180;7873;52.230;12.856;2022-09-09T02:06:37;100292.34;;;24.46
15544;BMP180;7873;52.230;12.856;2022-09-09T02:09:06;100295.41;;;24.43
15544;BMP180;7873;52.230;12.856;2022-09-09T02:11:34;100295.41;;;24.43
15544;BMP180;7873;52.230;12.856;2022-09-09T02:14:07;100296.25;;;24.43
15544;BMP180;7873;52.230;12.856;2022-09-09T02:16:39;100290.63;;;24.38
15544;BMP180;7873;52.230;12.856;2022-09-09T02:19:09;100289.59;;;24.39
15544;BMP180;7873;52.230;12.856;2022-09-09T02:21:40;100287.94;;;24.38
15544;BMP180;7873;52.230;12.856;2022-09-09T02:24:09;100285.19;;;24.32
15544;BMP180;7873;52.230;12.856;2022-09-09T02:26:40;100293.88;;;24.27
15544;BMP180;7873;52.230;12.856;2022-09-09T02:29:14;100288.91;;;24.31
15544;BMP180;7873;52.230;12.856;2022-09-09T02:31:44;100295.13;;;24.31
15544;BMP180;7873;52.230;12.856;2022-09-09T02:34:13;100300.31;;;24.33
15544;BMP180;7873;52.230;12.856;2022-09-09T02:36:42;100298.00;;;24.30
15544;BMP180;7873;52.230;12.856;2022-09-09T02:39:10;100307.31;;;24.27
15544;BMP180;7873;52.230;12.856;2022-09-09T02:41:39;100303.31;;;24.23
15544;BMP180;7873;52.230;12.856;2022-09-09T02:44:10;100306.22;;;24.22
15544;BMP180;7873;52.230;12.856;2022-09-09T02:46:51;100305.19;;;24.23
15544;BMP180;7873;52.230;12.856;2022-09-09T02:49:27;100300.22;;;24.20
15544;BMP180;7873;52.230;12.856;2022-09-09T02:52:01;100306.00;;;24.17
15544;BMP180;7873;52.230;12.856;2022-09-09T02:54:30;100300.78;;;24.15
15544;BMP180;7873;52.230;12.856;2022-09-09T02:57:02;100306.16;;;24.15
15544;BMP180;7873;52.230;12.856;2022-09-09T02:59:33;100306.56;;;24.12
15544;BMP180;7873;52.230;12.856;2022-09-09T03:02:00;100311.75;;;24.14
15544;BMP180;7873;52.230;12.856;2022-09-09T03:04:27;100309.06;;;24.14
15544;BMP180;7873;52.230;12.856;2022-09-09T03:06:54;100316.94;;;24.15
15544;BMP180;7873;52.230;12.856;2022-09-09T03:09:21;100315.28;;;24.14
15544;BMP180;7873;52.230;12.856;2022-09-09T03:11:48;100317.31;;;24.12
15544;BMP180;7873;52.230;12.856;2022-09-09T03:14:15;100308.41;;;24.12
15544;BMP180;7873;52.230;12.856;2022-09-09T03:16:43;100311.50;;;24.09
15544;BMP180;7873;52.230;12.856;2022-09-09T03:19:10;100309.44;;;24.11
15544;BMP180;7873;52.230;12.856;2022-09-09T03:21:37;100312.56;;;24.14
15544;BMP180;7873;52.230;12.856;2022-09-09T03:24:04;100314.94;;;24.24
15544;BMP180;7873;52.230;12.856;2022-09-09T03:26:32;100314.38;;;24.28
15544;BMP180;7873;52.230;12.856;2022-09-09T03:28:59;100317.28;;;24.33
15544;BMP180;7873;52.230;12.856;2022-09-09T03:31:26;100307.97;;;24.36
15544;BMP180;7873;52.230;12.856;2022-09-09T03:33:57;100305.56;;;24.41
15544;BMP180;7873;52.230;12.856;2022-09-09T03:36:24;100303.50;;;24.43
15544;BMP180;7873;52.230;12.856;2022-09-09T03:38:52;100309.50;;;24.45
15544;BMP180;7873;52.230;12.856;2022-09-09T03:41:19;100312.38;;;24.43
15544;BMP180;7873;52.230;12.856;2022-09-09T03:43:46;100310.53;;;24.44
15544;BMP180;7873;52.230;12.856;2022-09-09T03:46:13;100312.38;;;24.43
15544;BMP180;7873;52.230;12.856;2022-09-09T03:48:39;100313.22;;;24.44
15544;BMP180;7873;52.230;12.856;2022-09-09T03:51:07;100311.50;;;24.36
15544;BMP180;7873;52.230;12.856;2022-09-09T03:53:34;100304.94;;;24.39
15544;BMP180;7873;52.230;12.856;2022-09-09T03:56:04;100310.50;;;24.37
15544;BMP180;7873;52.230;12.856;2022-09-09T03:58:33;100309.84;;;24.35
15544;BMP180;7873;52.230;12.856;2022-09-09T04:01:01;100314.03;;;24.38
15544;BMP180;7873;52.230;12.856;2022-09-09T04:03:28;100319.59;;;24.36
15544;BMP180;7873;52.230;12.856;2022-09-09T04:05:56;100317.69;;;24.30
15544;BMP180;7873;52.230;12.856;2022-09-09T04:08:25;100323.25;;;24.29
15544;BMP180;7873;52.230;12.856;2022-09-09T04:10:52;100327.84;;;24.35
15544;BMP180;7873;52.230;12.856;2022-09-09T04:13:22;100332.59;;;24.33
15544;BMP180;7873;52.230;12.856;2022-09-09T04:15:51;100322.03;;;24.31
15544;BMP180;7873;52.230;12.856;2022-09-09T04:18:18;100326.56;;;24.31
15544;BMP180;7873;52.230;12.856;2022-09-09T04:20:46;100323.06;;;24.30
15544;BMP180;7873;52.230;12.856;2022-09-09T04:23:12;100323.50;;;24.34
15544;BMP180;7873;52.230;12.856;2022-09-09T04:25:44;100315.88;;;24.37
15544;BMP180;7873;52.230;12.856;2022-09-09T04:28:12;100322.53;;;24.41
15544;BMP180;7873;52.230;12.856;2022-09-09T04:30:39;100323.78;;;24.45
15544;BMP180;7873;52.230;12.856;2022-09-09T04:33:06;100327.25;;;24.39
15544;BMP180;7873;52.230;12.856;2022-09-09T04:35:33;100324.19;;;24.42
15544;BMP180;7873;52.230;12.856;2022-09-09T04:38:00;100323.78;;;24.45
15544;BMP180;7873;52.230;12.856;2022-09-09T04:40:28;100323.78;;;24.45
15544;BMP180;7873;52.230;12.856;2022-09-09T04:42:58;100335.41;;;24.46
15544;BMP180;7873;52.230;12.856;2022-09-09T04:45:25;100336.22;;;24.46
15544;BMP180;7873;52.230;12.856;2022-09-09T04:47:52;100325.44;;;24.46
15544;BMP180;7873;52.230;12.856;2022-09-09T04:50:19;100335.00;;;24.49
15544;BMP180;7873;52.230;12.856;2022-09-09T04:52:46;100329.81;;;24.47
15544;BMP180;7873;52.230;12.856;2022-09-09T04:55:13;100329.63;;;24.49
15544;BMP180;7873;52.230;12.856;2022-09-09T04:57:40;100327.19;;;24.54
15544;BMP180;7873;52.230;12.856;2022-09-09T05:00:09;100325.53;;;24.53
15544;BMP180;7873;52.230;12.856;2022-09-09T05:02:37;100328.34;;;24.45
15544;BMP180;7873;52.230;12.856;2022-09-09T05:05:04;100336.81;;;24.42
15544;BMP180;7873;52.230;12.856;2022-09-09T05:07:30;100331.00;;;24.38
15544;BMP180;7873;52.230;12.856;2022-09-09T05:09:57;100339.69;;;24.40
15544;BMP180;7873;52.230;12.856;2022-09-09T05:12:24;100335.16;;;24.41
15544;BMP180;7873;52.230;12.856;2022-09-09T05:14:52;100335.41;;;24.46
15544;BMP180;7873;52.230;12.856;2022-09-09T05:17:20;100340.56;;;24.47
15544;BMP180;7873;52.230;12.856;2022-09-09T05:19:47;100325.25;;;24.48
15544;BMP180;7873;52.230;12.856;2022-09-09T05:22:18;100326.69;;;24.44
15544;BMP180;7873;52.230;12.856;2022-09-09T05:24:45;100321.88;;;24.39
15544;BMP180;7873;52.230;12.856;2022-09-09T05:27:12;100337.22;;;24.39
15544;BMP180;7873;52.230;12.856;2022-09-09T05:29:39;100342.78;;;24.37
15544;BMP180;7873;52.230;12.856;2022-09-09T05:32:08;100345.22;;;24.32
15544;BMP180;7873;52.230;12.856;2022-09-09T05:34:36;100350.78;;;24.31
15544;BMP180;7873;52.230;12.856;2022-09-09T05:37:04;100347.84;;;24.26
15544;BMP180;7873;52.230;12.856;2022-09-09T05:39:32;100352.78;;;24.22
15544;BMP180;7873;52.230;12.856;2022-09-09T05:41:59;100352.78;;;24.22
15544;BMP180;7873;52.230;12.856;2022-09-09T05:44:26;100350.56;;;24.26
15544;BMP180;7873;52.230;12.856;2022-09-09T05:46:54;100347.63;;;24.21
15544;BMP180;7873;52.230;12.856;2022-09-09T05:49:21;100354.03;;;24.20
15544;BMP180;7873;52.230;12.856;2022-09-09T05:51:49;100358.56;;;24.19
15544;BMP180;7873;52.230;12.856;2022-09-09T05:54:16;100361.25;;;24.19
15544;BMP180;7873;52.230;12.856;2022-09-09T05:56:43;100361.84;;;24.15
15544;BMP180;7873;52.230;12.856;2022-09-09T05:59:10;100368.81;;;24.09
15544;BMP180;7873;52.230;12.856;2022-09-09T06:01:38;100371.06;;;24.06
15544;BMP180;7873;52.230;12.856;2022-09-09T06:04:06;100368.38;;;24.06
15544;BMP180;7873;52.230;12.856;2022-09-09T06:06:34;100375.22;;;24.08
15544;BMP180;7873;52.230;12.856;2022-09-09T06:09:05;100375.41;;;24.07
15544;BMP180;7873;52.230;12.856;2022-09-09T06:11:36;100375.63;;;24.05
15544;BMP180;7873;52.230;12.856;2022-09-09T06:14:03;100374.38;;;24.08
15544;BMP180;7873;52.230;12.856;2022-09-09T06:16:31;100373.09;;;24.04
15544;BMP180;7873;52.230;12.856;2022-09-09T06:18:59;100380.16;;;24.05
15544;BMP180;7873;52.230;12.856;2022-09-09T06:21:27;100384.72;;;24.04
15544;BMP180;7873;52.230;12.856;2022-09-09T06:23:55;100374.31;;;24.01
15544;BMP180;7873;52.230;12.856;2022-09-09T06:26:25;100379.06;;;23.99
15544;BMP180;7873;52.230;12.856;2022-09-09T06:28:53;100378.88;;;24.01
15544;BMP180;7873;52.230;12.856;2022-09-09T06:31:22;100375.34;;;24.00
15544;BMP180;7873;52.230;12.856;2022-09-09T06:33:49;100377.66;;;24.03
15544;BMP180;7873;52.230;12.856;2022-09-09T06:36:18;100373.75;;;24.06
15544;BMP180;7873;52.230;12.856;2022-09-09T06:38:45;100368.38;;;24.06
15544;BMP180;7873;52.230;12.856;2022-09-09T06:41:13;100368.56;;;24.04
15544;BMP180;7873;52.230;12.856;2022-09-09T06:43:41;100379.91;;;24.00
15544;BMP180;7873;52.230;12.856;2022-09-09T06:46:10;100372.00;;;23.98
15544;BMP180;7873;52.230;12.856;2022-09-09T06:48:38;100374.69;;;23.98
15544;BMP180;7873;52.230;12.856;2022-09-09T06:51:07;100358.38;;;24.00
15544;BMP180;7873;52.230;12.856;2022-09-09T06:53:35;100373.31;;;24.02
15544;BMP180;7873;52.230;12.856;2022-09-09T06:56:18;100368.28;;;23.99
15544;BMP180;7873;52.230;12.856;2022-09-09T06:58:46;100367.94;;;24.02
15544;BMP180;7873;52.230;12.856;2022-09-09T07:01:15;100363.84;;;24.06
15544;BMP180;7873;52.230;12.856;2022-09-09T07:03:45;100364.41;;;24.02
15544;BMP180;7873;52.230;12.856;2022-09-09T07:06:14;100368.75;;;24.03
15544;BMP180;7873;52.230;12.856;2022-09-09T07:08:42;100373.50;;;24.01
15544;BMP180;7873;52.230;12.856;2022-09-09T07:11:09;100372.47;;;24.02
15544;BMP180;7873;52.230;12.856;2022-09-09T07:13:36;100385.91;;;24.02
15544;BMP180;7873;52.230;12.856;2022-09-09T07:16:05;100384.44;;;23.99
15544;BMP180;7873;52.230;12.856;2022-09-09T07:18:32;100383.16;;;23.95
15544;BMP180;7873;52.230;12.856;2022-09-09T07:21:00;100389.00;;;23.99
15544;BMP180;7873;52.230;12.856;2022-09-09T07:23:27;100388.78;;;24.00
15544;BMP180;7873;52.230;12.856;2022-09-09T07:25:55;100393.91;;;23.95
15544;BMP180;7873;52.230;12.856;2022-09-09T07:28:22;100390.84;;;23.98
15544;BMP180;7873;52.230;12.856;2022-09-09T07:30:53;100389.81;;;23.99
15544;BMP180;7873;52.230;12.856;2022-09-09T07:33:21;100385.03;;;23.95
15544;BMP180;7873;52.230;12.856;2022-09-09T07:35:48;100386.44;;;23.91
15544;BMP180;7873;52.230;12.856;2022-09-09T07:38:15;100392.00;;;23.89
15544;BMP180;7873;52.230;12.856;2022-09-09T07:40:42;100393.19;;;23.87
15544;BMP180;7873;52.230;12.856;2022-09-09T07:43:09;100387.00;;;23.86
15544;BMP180;7873;52.230;12.856;2022-09-09T07:45:36;100393.00;;;23.88
15544;BMP180;7873;52.230;12.856;2022-09-09T07:48:03;100388.44;;;23.89
15544;BMP180;7873;52.230;12.856;2022-09-09T07:50:31;100394.84;;;23.88
15544;BMP180;7873;52.230;12.856;2022-09-09T07:52:58;100398.19;;;23.90
15544;BMP180;7873;52.230;12.856;2022-09-09T07:55:25;100397.38;;;23.89
15544;BMP180;7873;52.230;12.856;2022-09-09T07:57:52;100399.03;;;23.90
15544;BMP180;7873;52.230;12.856;2022-09-09T08:00:19;100398.47;;;23.95
15544;BMP180;7873;52.230;12.856;2022-09-09T08:02:47;100400.84;;;24.04
15544;BMP180;7873;52.230;12.856;2022-09-09T08:05:14;100396.28;;;24.05
15544;BMP180;7873;52.230;12.856;2022-09-09T08:07:43;100392.00;;;24.10
15544;BMP180;7873;52.230;12.856;2022-09-09T08:10:10;100394.94;;;24.15
15544;BMP180;7873;52.230;12.856;2022-09-09T08:12:36;100395.34;;;24.12
15544;BMP180;7873;52.230;12.856;2022-09-09T08:15:04;100398.84;;;24.13
15544;BMP180;7873;52.230;12.856;2022-09-09T08:17:31;100400.53;;;24.14
15544;BMP180;7873;52.230;12.856;2022-09-09T08:19:58;100411.47;;;24.12
15544;BMP180;7873;52.230;12.856;2022-09-09T08:22:30;100403.41;;;24.12
15544;BMP180;7873;52.230;12.856;2022-09-09T08:24:58;100403.03;;;24.15
15544;BMP180;7873;52.230;12.856;2022-09-09T08:27:25;100408.84;;;24.19
15544;BMP180;7873;52.230;12.856;2022-09-09T08:29:52;100408.25;;;24.23
15544;BMP180;7873;52.230;12.856;2022-09-09T08:32:19;100408.09;;;24.25
15544;BMP180;7873;52.230;12.856;2022-09-09T08:34:45;100416.41;;;24.30
15544;BMP180;7873;52.230;12.856;2022-09-09T08:37:13;100415.59;;;24.29
15544;BMP180;7873;52.230;12.856;2022-09-09T08:39:40;100418.06;;;24.31
15544;BMP180;7873;52.230;12.856;2022-09-09T08:42:30;100419.09;;;24.30
15544;BMP180;7873;52.230;12.856;2022-09-09T08:45:12;100420.13;;;24.29
15544;BMP180;7873;52.230;12.856;2022-09-09T08:47:51;100419.47;;;24.27
15544;BMP180;7873;52.230;12.856;2022-09-09T08:50:22;100419.03;;;24.23
15544;BMP180;7873;52.230;12.856;2022-09-09T08:52:56;100418.06;;;24.31
15544;BMP180;7873;52.230;12.856;2022-09-09T08:55:32;100420.19;;;24.35
15544;BMP180;7873;52.230;12.856;2022-09-09T08:58:09;100422.31;;;24.40
15544;BMP180;7873;52.230;12.856;2022-09-09T09:00:44;100419.81;;;24.38
15544;BMP180;7873;52.230;12.856;2022-09-09T09:03:18;100421.72;;;24.44
15544;BMP180;7873;52.230;12.856;2022-09-09T09:05:59;100414.88;;;24.42
15544;BMP180;7873;52.230;12.856;2022-09-09T09:08:35;100417.34;;;24.43
15544;BMP180;7873;52.230;12.856;2022-09-09T09:11:05;100420.03;;;24.43
15544;BMP180;7873;52.230;12.856;2022-09-09T09:13:38;100411.78;;;24.45
15544;BMP180;7873;52.230;12.856;2022-09-09T09:16:13;100416.53;;;24.43
15544;BMP180;7873;52.230;12.856;2022-09-09T09:18:41;100411.78;;;24.45
15544;BMP180;7873;52.230;12.856;2022-09-09T09:21:13;100411.97;;;24.43
15544;BMP180;7873;52.230;12.856;2022-09-09T09:23:49;100408.47;;;24.43
15544;BMP180;7873;52.230;12.856;2022-09-09T09:26:19;100407.63;;;24.42
15544;BMP180;7873;52.230;12.856;2022-09-09T09:28:49;100407.19;;;24.39
15544;BMP180;7873;52.230;12.856;2022-09-09T09:31:18;100411.72;;;24.38
15544;BMP180;7873;52.230;12.856;2022-09-09T09:33:48;100411.16;;;24.43
15544;BMP180;7873;52.230;12.856;2022-09-09T09:36:15;100408.00;;;24.39
15544;BMP180;7873;52.230;12.856;2022-09-09T09:38:53;100409.03;;;24.38
15544;BMP180;7873;52.230;12.856;2022-09-09T09:41:35;100410.25;;;24.36
15544;BMP180;7873;52.230;12.856;2022-09-09T09:44:05;100417.31;;;24.37
15544;BMP180;7873;52.230;12.856;2022-09-09T09:46:32;100412.94;;;24.36
15544;BMP180;7873;52.230;12.856;2022-09-09T09:49:00;100414.75;;;24.29
15544;BMP180;7873;52.230;12.856;2022-09-09T09:51:30;100423.91;;;24.34
15544;BMP180;7873;52.230;12.856;2022-09-09T09:54:18;100417.97;;;24.39
15544;BMP180;7873;52.230;12.856;2022-09-09T09:56:48;100407.38;;;24.37
15544;BMP180;7873;52.230;12.856;2022-09-09T09:59:35;100409.88;;;24.39
15544;BMP180;7873;52.230;12.856;2022-09-09T10:02:16;100413.78;;;24.36
15544;BMP180;7873;52.230;12.856;2022-09-09T10:04:43;100410.91;;;24.38
15544;BMP180;7873;52.230;12.856;2022-09-09T10:07:12;100407.38;;;24.37
15544;BMP180;7873;52.230;12.856;2022-09-09T10:09:40;100405.78;;;24.43
15544;BMP180;7873;52.230;12.856;2022-09-09T10:12:17;100404.75;;;24.44
15544;BMP180;7873;52.230;12.856;2022-09-09T10:14:52;100403.16;;;24.49
15544;BMP180;7873;52.230;12.856;2022-09-09T10:17:30;100420.38;;;24.55
15544;BMP180;7873;52.230;12.856;2022-09-09T10:20:16;100414.63;;;24.58
15544;BMP180;7873;52.230;12.856;2022-09-09T10:22:49;100426.69;;;24.62
15544;BMP180;7873;52.230;12.856;2022-09-09T10:25:30;100413.63;;;24.65
15544;BMP180;7873;52.230;12.856;2022-09-09T10:28:16;100423.44;;;24.73
15544;BMP180;7873;52.230;12.856;2022-09-09T10:31:01;100418.13;;;24.79
15544;BMP180;7873;52.230;12.856;2022-09-09T10:33:34;100416.28;;;24.86
15544;BMP180;7873;52.230;12.856;2022-09-09T10:36:12;100419.63;;;24.88
15544;BMP180;7873;52.230;12.856;2022-09-09T10:38:40;100416.53;;;24.91
15544;BMP180;7873;52.230;12.856;2022-09-09T10:41:32;100423.41;;;24.94
15544;BMP180;7873;52.230;12.856;2022-09-09T10:44:17;100416.34;;;24.93
15544;BMP180;7873;52.230;12.856;2022-09-09T10:47:00;100423.22;;;24.95
15544;BMP180;7873;52.230;12.856;2022-09-09T10:49:55;100423.63;;;24.99
15544;BMP180;7873;52.230;12.856;2022-09-09T10:52:31;100419.66;;;24.95
15544;BMP180;7873;52.230;12.856;2022-09-09T10:55:08;100422.75;;;24.92
15544;BMP180;7873;52.230;12.856;2022-09-09T10:57:40;100413.03;;;24.91
15544;BMP180;7873;52.230;12.856;2022-09-09T11:00:15;100407.81;;;24.89
15544;BMP180;7873;52.230;12.856;2022-09-09T11:02:45;100405.56;;;24.93
15544;BMP180;7873;52.230;12.856;2022-09-09T11:05:17;100395.44;;;24.95
15544;BMP180;7873;52.230;12.856;2022-09-09T11:07:49;100400.63;;;24.96
15544;BMP180;7873;52.230;12.856;2022-09-09T11:10:22;100405.00;;;24.97
15544;BMP180;7873;52.230;12.856;2022-09-09T11:12:52;100407.22;;;24.94
15544;BMP180;7873;52.230;12.856;2022-09-09T11:15:23;100404.38;;;24.95
15544;BMP180;7873;52.230;12.856;2022-09-09T11:17:58;100400.63;;;24.96
15544;BMP180;7873;52.230;12.856;2022-09-09T11:20:27;100405.19;;;24.96
15544;BMP180;7873;52.230;12.856;2022-09-09T11:22:57;100406.38;;;24.93
15544;BMP180;7873;52.230;12.856;2022-09-09T11:25:30;100408.06;;;24.94
15544;BMP180;7873;52.230;12.856;2022-09-09T11:28:15;100396.28;;;24.95
15544;BMP180;7873;52.230;12.856;2022-09-09T11:30:55;100399.97;;;24.94
15544;BMP180;7873;52.230;12.856;2022-09-09T11:33:48;100399.97;;;24.94
15544;BMP180;7873;52.230;12.856;2022-09-09T11:36:35;100397.28;;;24.94
15544;BMP180;7873;52.230;12.856;2022-09-09T11:39:18;100397.28;;;24.94
15544;BMP180;7873;52.230;12.856;2022-09-09T11:41:50;100397.28;;;24.94
15544;BMP180;7873;52.230;12.856;2022-09-09T11:44:19;100386.09;;;24.91
15544;BMP180;7873;52.230;12.856;2022-09-09T11:46:50;100380.06;;;24.89
15544;BMP180;7873;52.230;12.856;2022-09-09T11:49:26;100380.25;;;24.87
15544;BMP180;7873;52.230;12.856;2022-09-09T11:51:53;100386.22;;;24.83
15544;BMP180;7873;52.230;12.856;2022-09-09T11:54:31;100389.34;;;24.86
15544;BMP180;7873;52.230;12.856;2022-09-09T11:56:58;100388.31;;;24.87
15544;BMP180;7873;52.230;12.856;2022-09-09T11:59:27;100385.25;;;24.90
15544;BMP180;7873;52.230;12.856;2022-09-09T12:01:55;100381.50;;;24.91
15544;BMP180;7873;52.230;12.856;2022-09-09T12:04:35;100376.75;;;24.93
15544;BMP180;7873;52.230;12.856;2022-09-09T12:07:24;100374.91;;;24.94
15544;BMP180;7873;52.230;12.856;2022-09-09T12:09:56;100377.44;;;24.95
15544;BMP180;7873;52.230;12.856;2022-09-09T12:12:27;100370.56;;;24.93
15544;BMP180;7873;52.230;12.856;2022-09-09T12:15:17;100367.41;;;24.89
15544;BMP180;7873;52.230;12.856;2022-09-09T12:17:48;100376.09;;;24.85
15544;BMP180;7873;52.230;12.856;2022-09-09T12:20:19;100369.06;;;24.84
15544;BMP180;7873;52.230;12.856;2022-09-09T12:23:01;100365.91;;;24.80
15544;BMP180;7873;52.230;12.856;2022-09-09T12:25:36;100360.13;;;24.83
15544;BMP180;7873;52.230;12.856;2022-09-09T12:28:11;100364.88;;;24.81
15544;BMP180;7873;52.230;12.856;2022-09-09T12:30:48;100372.75;;;24.83
15544;BMP180;7873;52.230;12.856;2022-09-09T12:33:17;100364.50;;;24.84
15544;BMP180;7873;52.230;12.856;2022-09-09T12:35:51;100365.34;;;24.85
15544;BMP180;7873;52.230;12.856;2022-09-09T12:38:24;100377.13;;;24.84
15544;BMP180;7873;52.230;12.856;2022-09-09T12:40:56;100386.88;;;24.85
15544;BMP180;7873;52.230;12.856;2022-09-09T12:43:24;100389.56;;;24.85
15544;BMP180;7873;52.230;12.856;2022-09-09T12:45:55;100388.88;;;24.76
15544;BMP180;7873;52.230;12.856;2022-09-09T12:48:28;100392.41;;;24.77
15544;BMP180;7873;52.230;12.856;2022-09-09T12:50:58;100405.47;;;24.80
15544;BMP180;7873;52.230;12.856;2022-09-09T12:53:27;100419.53;;;24.75
15544;BMP180;7873;52.230;12.856;2022-09-09T12:55:56;100412.91;;;24.78
15544;BMP180;7873;52.230;12.856;2022-09-09T12:58:25;100406.50;;;24.79
15544;BMP180;7873;52.230;12.856;2022-09-09T13:00:55;100401.75;;;24.81
15544;BMP180;7873;52.230;12.856;2022-09-09T13:03:23;100390.78;;;24.82
15544;BMP180;7873;52.230;12.856;2022-09-09T13:05:52;100404.88;;;24.84
15544;BMP180;7873;52.230;12.856;2022-09-09T13:08:20;100404.69;;;24.86
15544;BMP180;7873;52.230;12.856;2022-09-09T13:10:50;100397.44;;;24.86
15544;BMP180;7873;52.230;12.856;2022-09-09T13:13:22;100397.00;;;24.83
15544;BMP180;7873;52.230;12.856;2022-09-09T13:15:51;100389.75;;;24.83
15544;BMP180;7873;52.230;12.856;2022-09-09T13:18:22;100382.13;;;24.87
15544;BMP180;7873;52.230;12.856;2022-09-09T13:20:49;100366.78;;;24.87
15544;BMP180;7873;52.230;12.856;2022-09-09T13:23:18;100360.81;;;24.92
15544;BMP180;7873;52.230;12.856;2022-09-09T13:25:55;100355.66;;;24.97
15544;BMP180;7873;52.230;12.856;2022-09-09T13:28:23;100349.28;;;25.04
15544;BMP180;7873;52.230;12.856;2022-09-09T13:30:58;100350.53;;;25.08
15544;BMP180;7873;52.230;12.856;2022-09-09T13:33:33;100350.75;;;25.13
15544;BMP180;7873;52.230;12.856;2022-09-09T13:36:02;100351.22;;;25.17
15544;BMP180;7873;52.230;12.856;2022-09-09T13:38:32;100353.34;;;25.21
15544;BMP180;7873;52.230;12.856;2022-09-09T13:41:02;100358.97;;;25.26
15544;BMP180;7873;52.230;12.856;2022-09-09T13:43:32;100350.47;;;25.29
15544;BMP180;7873;52.230;12.856;2022-09-09T13:46:02;100354.72;;;25.17
15544;BMP180;7873;52.230;12.856;2022-09-09T13:48:29;100355.41;;;25.19
15544;BMP180;7873;52.230;12.856;2022-09-09T13:50:59;100340.09;;;25.26
15544;BMP180;7873;52.230;12.856;2022-09-09T13:53:27;100343.84;;;25.32
15544;BMP180;7873;52.230;12.856;2022-09-09T13:55:54;100344.09;;;25.37
15544;BMP180;7873;52.230;12.856;2022-09-09T13:58:24;100342.00;;;25.39
15544;BMP180;7873;52.230;12.856;2022-09-09T14:00:52;100339.75;;;25.42
15544;BMP180;7873;52.230;12.856;2022-09-09T14:03:19;100344.53;;;25.47
15544;BMP180;7873;52.230;12.856;2022-09-09T14:05:46;100354.09;;;25.49
15544;BMP180;7873;52.230;12.856;2022-09-09T14:08:21;100357.41;;;25.51
15544;BMP180;7873;52.230;12.856;2022-09-09T14:10:48;100352.63;;;25.53
15544;BMP180;7873;52.230;12.856;2022-09-09T14:13:15;100350.38;;;25.57
15544;BMP180;7873;52.230;12.856;2022-09-09T14:15:43;100352.44;;;25.55
15544;BMP180;7873;52.230;12.856;2022-09-09T14:18:11;100351.00;;;25.58